PRIVATE WETTERSTATION BILLIGHEIM-ALLFELD                       ZURCK
Wetterdaten: Sonntag, 03.12.2017
Datum Zeit Temp. A. Temp. A. min Temp. A. max Feuchte A. Luftdruck Regen Wind Richtung Richtung Sonnenschein ET Solar Taupunkt Windchill Windben Empfang
03.12.2017 00:00 -1,9 C -1,9 C -1,9 C 91 % 1026,9 hPa 0,0 l/m 0,0 km/h (0 Bft) N 360 0 min 0,000 mm 0 W/m -3,2 C -1,9 C 3,2 km/h (1 Bft) 100 %
03.12.2017 00:10 -1,8 C -1,9 C -1,8 C 91 % 1027,0 hPa 0,0 l/m 0,0 km/h (0 Bft) N 0 0 min 0,000 mm 0 W/m -3,1 C -1,8 C 0,0 km/h (0 Bft) 100 %
03.12.2017 00:20 -1,7 C -1,8 C -1,7 C 90 % 1027,0 hPa 0,0 l/m 0,0 km/h (0 Bft) N 360 0 min 0,000 mm 0 W/m -3,1 C -1,7 C 1,6 km/h (1 Bft) 100 %
03.12.2017 00:30 -1,7 C -1,7 C -1,7 C 90 % 1026,9 hPa 0,0 l/m 0,0 km/h (0 Bft) N 0 0 min 0,000 mm 0 W/m -3,1 C -1,7 C 0,0 km/h (0 Bft) 100 %
03.12.2017 00:40 -1,7 C -1,7 C -1,7 C 90 % 1026,8 hPa 0,0 l/m 0,0 km/h (0 Bft) N 0 0 min 0,000 mm 0 W/m -3,1 C -1,7 C 0,0 km/h (0 Bft) 100 %
03.12.2017 00:50 -1,8 C -1,8 C -1,7 C 90 % 1026,7 hPa 0,0 l/m 0,0 km/h (0 Bft) N 0 0 min 0,000 mm 0 W/m -3,2 C -1,8 C 0,0 km/h (0 Bft) 100 %
03.12.2017 01:00 -1,8 C -1,8 C -1,8 C 90 % 1026,6 hPa 0,0 l/m 0,0 km/h (0 Bft) N 0 0 min 0,000 mm 0 W/m -3,2 C -1,8 C 0,0 km/h (0 Bft) 100 %
03.12.2017 01:10 -1,7 C -1,8 C -1,7 C 90 % 1026,7 hPa 0,0 l/m 0,0 km/h (0 Bft) N 0 0 min 0,000 mm 0 W/m -3,1 C -1,7 C 0,0 km/h (0 Bft) 100 %
03.12.2017 01:20 -1,7 C -1,7 C -1,7 C 90 % 1026,7 hPa 0,0 l/m 0,0 km/h (0 Bft) N 0 0 min 0,000 mm 0 W/m -3,1 C -1,7 C 0,0 km/h (0 Bft) 100 %
03.12.2017 01:30 -1,7 C -1,7 C -1,7 C 90 % 1026,5 hPa 0,0 l/m 0,0 km/h (0 Bft) N 0 0 min 0,000 mm 0 W/m -3,1 C -1,7 C 0,0 km/h (0 Bft) 100 %
03.12.2017 01:40 -1,6 C -1,7 C -1,6 C 90 % 1026,6 hPa 0,0 l/m 0,0 km/h (0 Bft) N 0 0 min 0,000 mm 0 W/m -3,0 C -1,6 C 0,0 km/h (0 Bft) 100 %
03.12.2017 01:50 -1,5 C -1,6 C -1,5 C 90 % 1026,5 hPa 0,0 l/m 0,0 km/h (0 Bft) N 0 0 min 0,000 mm 0 W/m -2,9 C -1,5 C 0,0 km/h (0 Bft) 100 %
03.12.2017 02:00 -1,6 C -1,6 C -1,5 C 89 % 1026,5 hPa 0,0 l/m 0,0 km/h (0 Bft) N 0 0 min 0,000 mm 0 W/m -3,2 C -1,6 C 0,0 km/h (0 Bft) 100 %
03.12.2017 02:10 -1,6 C -1,6 C -1,6 C 90 % 1026,5 hPa 0,0 l/m 0,0 km/h (0 Bft) N 0 0 min 0,000 mm 0 W/m -3,0 C -1,6 C 0,0 km/h (0 Bft) 100 %
03.12.2017 02:20 -1,8 C -1,8 C -1,6 C 90 % 1026,5 hPa 0,0 l/m 0,0 km/h (0 Bft) N 0 0 min 0,000 mm 0 W/m -3,2 C -1,8 C 0,0 km/h (0 Bft) 100 %
03.12.2017 02:30 -1,9 C -1,9 C -1,8 C 90 % 1026,7 hPa 0,0 l/m 0,0 km/h (0 Bft) N 0 0 min 0,000 mm 0 W/m -3,3 C -1,9 C 0,0 km/h (0 Bft) 100 %
03.12.2017 02:40 -2,0 C -2,1 C -1,9 C 90 % 1026,8 hPa 0,0 l/m 0,0 km/h (0 Bft) N 0 0 min 0,000 mm 0 W/m -3,4 C -2,0 C 0,0 km/h (0 Bft) 100 %
03.12.2017 02:50 -2,1 C -2,1 C -2,0 C 90 % 1026,6 hPa 0,0 l/m 0,0 km/h (0 Bft) N 0 0 min 0,000 mm 0 W/m -3,5 C -2,1 C 0,0 km/h (0 Bft) 100 %
03.12.2017 03:00 -2,0 C -2,1 C -2,0 C 91 % 1026,6 hPa 0,0 l/m 0,0 km/h (0 Bft) N 0 0 min 0,000 mm 0 W/m -3,3 C -2,0 C 0,0 km/h (0 Bft) 100 %
03.12.2017 03:10 -1,9 C -2,0 C -1,9 C 90 % 1026,6 hPa 0,0 l/m 0,0 km/h (0 Bft) N 0 0 min 0,000 mm 0 W/m -3,3 C -1,9 C 0,0 km/h (0 Bft) 100 %
03.12.2017 03:20 -1,8 C -1,9 C -1,8 C 90 % 1026,7 hPa 0,0 l/m 0,0 km/h (0 Bft) N 0 0 min 0,000 mm 0 W/m -3,2 C -1,8 C 0,0 km/h (0 Bft) 100 %
03.12.2017 03:30 -1,8 C -1,8 C -1,8 C 90 % 1026,7 hPa 0,0 l/m 0,0 km/h (0 Bft) N 0 0 min 0,000 mm 0 W/m -3,2 C -1,8 C 0,0 km/h (0 Bft) 100 %
03.12.2017 03:40 -1,8 C -1,8 C -1,8 C 89 % 1026,7 hPa 0,0 l/m 0,0 km/h (0 Bft) N 0 0 min 0,000 mm 0 W/m -3,4 C -1,8 C 0,0 km/h (0 Bft) 100 %
03.12.2017 03:50 -1,9 C -1,9 C -1,8 C 89 % 1026,6 hPa 0,0 l/m 0,0 km/h (0 Bft) N 0 0 min 0,000 mm 0 W/m -3,5 C -1,9 C 0,0 km/h (0 Bft) 100 %
03.12.2017 04:00 -1,8 C -1,9 C -1,8 C 89 % 1026,7 hPa 0,0 l/m 0,0 km/h (0 Bft) N 0 0 min 0,000 mm 0 W/m -3,4 C -1,8 C 0,0 km/h (0 Bft) 89 %
03.12.2017 04:10 -1,8 C -1,8 C -1,8 C 88 % 1026,7 hPa 0,0 l/m 0,0 km/h (0 Bft) N 0 0 min 0,000 mm 0 W/m -3,5 C -1,8 C 0,0 km/h (0 Bft) 100 %
03.12.2017 04:20 -1,7 C -1,8 C -1,7 C 88 % 1026,8 hPa 0,0 l/m 0,0 km/h (0 Bft) N 360 0 min 0,000 mm 0 W/m -3,4 C -1,7 C 4,8 km/h (1 Bft) 100 %
03.12.2017 04:30 -1,6 C -1,7 C -1,6 C 88 % 1026,7 hPa 0,0 l/m 0,0 km/h (0 Bft) N 360 0 min 0,000 mm 0 W/m -3,3 C -1,6 C 3,2 km/h (1 Bft) 100 %
03.12.2017 04:40 -1,7 C -1,7 C -1,6 C 88 % 1026,7 hPa 0,0 l/m 1,6 km/h (1 Bft) N 360 0 min 0,000 mm 0 W/m -3,4 C -1,7 C 4,8 km/h (1 Bft) 100 %
03.12.2017 04:50 -1,6 C -1,7 C -1,6 C 88 % 1026,6 hPa 0,0 l/m 0,0 km/h (0 Bft) N 360 0 min 0,000 mm 0 W/m -3,3 C -1,6 C 4,8 km/h (1 Bft) 100 %
03.12.2017 05:00 -1,8 C -1,8 C -1,6 C 86 % 1026,7 hPa 0,0 l/m 1,6 km/h (1 Bft) N-NW 337 0 min 0,000 mm 0 W/m -3,8 C -1,8 C 6,4 km/h (2 Bft) 100 %
03.12.2017 05:10 -2,0 C -2,0 C -1,8 C 87 % 1026,5 hPa 0,0 l/m 0,0 km/h (0 Bft) N-NW 337 0 min 0,000 mm 0 W/m -3,9 C -2,0 C 3,2 km/h (1 Bft) 96 %
03.12.2017 05:20 -2,1 C -2,1 C -2,0 C 88 % 1026,5 hPa 0,0 l/m 0,0 km/h (0 Bft) N-NW 337 0 min 0,000 mm 0 W/m -3,8 C -2,1 C 3,2 km/h (1 Bft) 95 %
03.12.2017 05:30 -2,2 C -2,2 C -2,1 C 88 % 1026,4 hPa 0,0 l/m 0,0 km/h (0 Bft) N 0 0 min 0,000 mm 0 W/m -3,9 C -2,2 C 0,0 km/h (0 Bft) 100 %
03.12.2017 05:40 -2,3 C -2,3 C -2,2 C 88 % 1026,3 hPa 0,0 l/m 0,0 km/h (0 Bft) N 0 0 min 0,000 mm 0 W/m -4,0 C -2,3 C 0,0 km/h (0 Bft) 100 %
03.12.2017 05:50 -2,4 C -2,4 C -2,3 C 88 % 1026,4 hPa 0,0 l/m 0,0 km/h (0 Bft) N-NW 337 0 min 0,000 mm 0 W/m -4,1 C -2,4 C 3,2 km/h (1 Bft) 100 %
03.12.2017 06:00 -2,4 C -2,4 C -2,4 C 88 % 1026,4 hPa 0,0 l/m 0,0 km/h (0 Bft) N 0 0 min 0,000 mm 0 W/m -4,1 C -2,4 C 0,0 km/h (0 Bft) 100 %
03.12.2017 06:10 -2,2 C -2,4 C -2,2 C 88 % 1026,5 hPa 0,0 l/m 0,0 km/h (0 Bft) N 0 0 min 0,000 mm 0 W/m -3,9 C -2,2 C 0,0 km/h (0 Bft) 99 %
03.12.2017 06:20 -2,1 C -2,2 C -2,1 C 88 % 1026,5 hPa 0,0 l/m 0,0 km/h (0 Bft) N 0 0 min 0,000 mm 0 W/m -3,8 C -2,1 C 0,0 km/h (0 Bft) 100 %
03.12.2017 06:30 -2,1 C -2,2 C -2,1 C 88 % 1026,7 hPa 0,0 l/m 1,6 km/h (1 Bft) NW 315 0 min 0,000 mm 0 W/m -3,8 C -2,1 C 6,4 km/h (2 Bft) 91 %
03.12.2017 06:40 -2,2 C -2,2 C -2,1 C 88 % 1026,7 hPa 0,0 l/m 3,2 km/h (1 Bft) NW 315 0 min 0,000 mm 0 W/m -3,9 C -2,2 C 8,0 km/h (2 Bft) 100 %
03.12.2017 06:50 -2,2 C -2,2 C -2,2 C 88 % 1026,6 hPa 0,0 l/m 1,6 km/h (1 Bft) W-NW 292 0 min 0,000 mm 0 W/m -3,9 C -2,2 C 6,4 km/h (2 Bft) 100 %
03.12.2017 07:00 -2,3 C -2,3 C -2,2 C 88 % 1026,5 hPa 0,0 l/m 3,2 km/h (1 Bft) W-NW 292 0 min 0,000 mm 0 W/m -4,0 C -2,3 C 8,0 km/h (2 Bft) 100 %
03.12.2017 07:10 -2,2 C -2,3 C -2,2 C 88 % 1026,7 hPa 0,0 l/m 3,2 km/h (1 Bft) NW 315 0 min 0,000 mm 0 W/m -3,9 C -2,2 C 8,0 km/h (2 Bft) 100 %
03.12.2017 07:20 -2,1 C -2,2 C -2,1 C 88 % 1026,7 hPa 0,0 l/m 3,2 km/h (1 Bft) NW 315 0 min 0,000 mm 0 W/m -3,8 C -2,1 C 6,4 km/h (2 Bft) 100 %
03.12.2017 07:30 -1,9 C -2,1 C -1,9 C 88 % 1026,7 hPa 0,0 l/m 1,6 km/h (1 Bft) NW 315 0 min 0,000 mm 0 W/m -3,6 C -1,9 C 6,4 km/h (2 Bft) 100 %
03.12.2017 07:40 -1,9 C -2,0 C -1,9 C 88 % 1026,8 hPa 0,0 l/m 1,6 km/h (1 Bft) NW 315 0 min 0,000 mm 0 W/m -3,6 C -1,9 C 4,8 km/h (1 Bft) 100 %
03.12.2017 07:50 -1,8 C -1,9 C -1,8 C 87 % 1026,7 hPa 0,0 l/m 0,0 km/h (0 Bft) N 0 0 min 0,000 mm 0 W/m -3,7 C -1,8 C 0,0 km/h (0 Bft) 100 %
03.12.2017 08:00 -1,9 C -1,9 C -1,8 C 87 % 1026,5 hPa 0,0 l/m 0,0 km/h (0 Bft) NW 315 0 min 0,000 mm 0 W/m -3,8 C -1,9 C 4,8 km/h (1 Bft) 100 %
03.12.2017 08:10 -2,0 C -2,0 C -1,9 C 87 % 1026,7 hPa 0,0 l/m 1,6 km/h (1 Bft) W-NW 292 0 min 0,000 mm 12 W/m -3,9 C -2,0 C 8,0 km/h (2 Bft) 100 %
03.12.2017 08:20 -2,1 C -2,1 C -2,0 C 88 % 1026,9 hPa 0,0 l/m 1,6 km/h (1 Bft) W-NW 292 0 min 0,000 mm 18 W/m -3,8 C -2,1 C 3,2 km/h (1 Bft) 100 %
03.12.2017 08:30 -2,2 C -2,2 C -2,1 C 88 % 1026,8 hPa 0,0 l/m 1,6 km/h (1 Bft) W-NW 292 0 min 0,000 mm 21 W/m -3,9 C -2,2 C 4,8 km/h (1 Bft) 100 %
03.12.2017 08:40 -2,2 C -2,2 C -2,2 C 88 % 1026,8 hPa 0,0 l/m 1,6 km/h (1 Bft) W-NW 292 0 min 0,000 mm 26 W/m -3,9 C -2,2 C 4,8 km/h (1 Bft) 100 %
03.12.2017 08:50 -2,2 C -2,2 C -2,2 C 88 % 1027,0 hPa 0,0 l/m 1,6 km/h (1 Bft) W-NW 292 0 min 0,000 mm 25 W/m -3,9 C -2,2 C 4,8 km/h (1 Bft) 90 %
03.12.2017 09:00 -2,1 C -2,2 C -2,1 C 88 % 1027,1 hPa 0,0 l/m 0,0 km/h (0 Bft) W-NW 292 0 min 0,000 mm 26 W/m -3,8 C -2,1 C 4,8 km/h (1 Bft) 100 %
03.12.2017 09:10 -1,9 C -2,1 C -1,9 C 88 % 1027,2 hPa 0,0 l/m 0,0 km/h (0 Bft) N 0 0 min 0,000 mm 26 W/m -3,6 C -1,9 C 0,0 km/h (0 Bft) 100 %
03.12.2017 09:20 -1,8 C -1,9 C -1,8 C 87 % 1027,3 hPa 0,0 l/m 0,0 km/h (0 Bft) W-NW 292 0 min 0,000 mm 33 W/m -3,7 C -1,8 C 3,2 km/h (1 Bft) 100 %
03.12.2017 09:30 -1,7 C -1,8 C -1,7 C 87 % 1027,2 hPa 0,0 l/m 0,0 km/h (0 Bft) N 0 0 min 0,000 mm 46 W/m -3,6 C -1,7 C 0,0 km/h (0 Bft) 100 %
03.12.2017 09:40 -1,7 C -1,7 C -1,7 C 87 % 1027,2 hPa 0,0 l/m 0,0 km/h (0 Bft) W-NW 292 0 min 0,000 mm 49 W/m -3,6 C -1,7 C 3,2 km/h (1 Bft) 100 %
03.12.2017 09:50 -1,7 C -1,7 C -1,7 C 87 % 1027,2 hPa 0,0 l/m 0,0 km/h (0 Bft) W-NW 292 0 min 0,000 mm 53 W/m -3,6 C -1,7 C 3,2 km/h (1 Bft) 100 %
03.12.2017 10:00 -1,6 C -1,7 C -1,6 C 87 % 1027,4 hPa 0,0 l/m 0,0 km/h (0 Bft) N 0 0 min 0,025 mm 53 W/m -3,5 C -1,6 C 0,0 km/h (0 Bft) 100 %
03.12.2017 10:10 -1,4 C -1,6 C -1,4 C 87 % 1027,4 hPa 0,0 l/m 1,6 km/h (1 Bft) W-NW 292 0 min 0,000 mm 70 W/m -3,3 C -1,4 C 3,2 km/h (1 Bft) 89 %
03.12.2017 10:20 -1,3 C -1,4 C -1,3 C 87 % 1027,6 hPa 0,0 l/m 0,0 km/h (0 Bft) W-NW 292 0 min 0,000 mm 74 W/m -3,2 C -1,3 C 3,2 km/h (1 Bft) 100 %
03.12.2017 10:30 -1,3 C -1,3 C -1,2 C 86 % 1027,6 hPa 0,0 l/m 0,0 km/h (0 Bft) N 0 0 min 0,000 mm 60 W/m -3,3 C -1,3 C 0,0 km/h (0 Bft) 100 %
03.12.2017 10:40 -1,4 C -1,4 C -1,3 C 87 % 1027,6 hPa 0,0 l/m 1,6 km/h (1 Bft) W-SW 247 0 min 0,000 mm 56 W/m -3,3 C -1,4 C 6,4 km/h (2 Bft) 100 %
03.12.2017 10:50 -1,4 C -1,4 C -1,3 C 86 % 1027,6 hPa 0,0 l/m 3,2 km/h (1 Bft) SW 225 0 min 0,000 mm 47 W/m -3,4 C -1,4 C 8,0 km/h (2 Bft) 100 %
03.12.2017 11:00 -1,4 C -1,4 C -1,4 C 87 % 1027,5 hPa 0,0 l/m 1,6 km/h (1 Bft) SW 225 0 min 0,025 mm 44 W/m -3,3 C -1,4 C 6,4 km/h (2 Bft) 100 %
03.12.2017 11:10 -1,4 C -1,4 C -1,4 C 86 % 1027,4 hPa 0,0 l/m 3,2 km/h (1 Bft) SW 225 0 min 0,000 mm 58 W/m -3,4 C -1,4 C 8,0 km/h (2 Bft) 100 %
03.12.2017 11:20 -1,5 C -1,5 C -1,4 C 87 % 1027,4 hPa 0,0 l/m 4,8 km/h (1 Bft) SW 225 0 min 0,000 mm 67 W/m -3,4 C -1,5 C 8,0 km/h (2 Bft) 99 %
03.12.2017 11:30 -1,6 C -1,6 C -1,5 C 88 % 1027,2 hPa 0,0 l/m 3,2 km/h (1 Bft) SW 225 0 min 0,000 mm 69 W/m -3,3 C -1,6 C 9,7 km/h (2 Bft) 100 %
03.12.2017 11:40 -1,6 C -1,6 C -1,6 C 89 % 1027,0 hPa 0,0 l/m 3,2 km/h (1 Bft) S-SW 202 0 min 0,000 mm 65 W/m -3,2 C -1,6 C 8,0 km/h (2 Bft) 99 %
03.12.2017 11:50 -1,7 C -1,7 C -1,6 C 88 % 1027,0 hPa 0,0 l/m 4,8 km/h (1 Bft) W-SW 247 0 min 0,000 mm 54 W/m -3,4 C -1,7 C 14,5 km/h (3 Bft) 100 %
03.12.2017 12:00 -1,6 C -1,7 C -1,6 C 89 % 1026,9 hPa 0,1 l/m 3,2 km/h (1 Bft) W-SW 247 0 min 0,025 mm 62 W/m -3,2 C -1,6 C 8,0 km/h (2 Bft) 100 %
03.12.2017 12:10 -1,5 C -1,6 C -1,5 C 89 % 1026,7 hPa 0,0 l/m 3,2 km/h (1 Bft) SW 225 0 min 0,000 mm 76 W/m -3,1 C -1,5 C 8,0 km/h (2 Bft) 99 %
03.12.2017 12:20 -1,6 C -1,6 C -1,5 C 89 % 1026,7 hPa 0,0 l/m 4,8 km/h (1 Bft) SW 225 0 min 0,000 mm 74 W/m -3,2 C -1,6 C 9,7 km/h (2 Bft) 100 %
03.12.2017 12:30 -1,6 C -1,7 C -1,6 C 90 % 1026,6 hPa 0,1 l/m 4,8 km/h (1 Bft) S-SW 202 0 min 0,000 mm 74 W/m -3,0 C -1,6 C 14,5 km/h (3 Bft) 100 %
03.12.2017 12:40 -1,6 C -1,7 C -1,6 C 90 % 1026,5 hPa 0,0 l/m 4,8 km/h (1 Bft) SW 225 0 min 0,000 mm 72 W/m -3,0 C -1,6 C 9,7 km/h (2 Bft) 100 %
03.12.2017 12:50 -1,6 C -1,6 C -1,6 C 91 % 1026,5 hPa 0,1 l/m 3,2 km/h (1 Bft) SW 225 0 min 0,000 mm 65 W/m -2,9 C -1,6 C 16,1 km/h (3 Bft) 100 %
03.12.2017 13:00 -1,5 C -1,6 C -1,5 C 91 % 1026,4 hPa 0,0 l/m 8,0 km/h (2 Bft) S-SW 202 0 min 0,025 mm 70 W/m -2,8 C -3,2 C 16,1 km/h (3 Bft) 99 %
03.12.2017 13:10 -1,7 C -1,7 C -1,5 C 91 % 1026,4 hPa 0,1 l/m 6,4 km/h (2 Bft) S-SW 202 0 min 0,000 mm 62 W/m -3,0 C -1,7 C 17,7 km/h (3 Bft) 99 %
03.12.2017 13:20 -1,6 C -1,7 C -1,6 C 91 % 1026,2 hPa 0,0 l/m 8,0 km/h (2 Bft) S-SW 202 0 min 0,000 mm 58 W/m -2,9 C -3,3 C 19,3 km/h (3 Bft) 98 %
03.12.2017 13:30 -1,6 C -1,7 C -1,6 C 91 % 1026,2 hPa 0,1 l/m 8,0 km/h (2 Bft) S-SW 202 0 min 0,000 mm 44 W/m -2,9 C -3,3 C 19,3 km/h (3 Bft) 100 %
03.12.2017 13:40 -1,7 C -1,7 C -1,6 C 91 % 1026,1 hPa 0,0 l/m 8,0 km/h (2 Bft) S-SW 202 0 min 0,000 mm 37 W/m -3,0 C -3,4 C 16,1 km/h (3 Bft) 100 %
03.12.2017 13:50 -1,7 C -1,7 C -1,7 C 91 % 1026,1 hPa 0,2 l/m 6,4 km/h (2 Bft) S-SW 202 0 min 0,000 mm 37 W/m -3,0 C -1,7 C 14,5 km/h (3 Bft) 100 %
03.12.2017 14:10 -1,7 C -1,7 C -1,7 C 91 % 1025,8 hPa 0,0 l/m 5,5 km/h (1 Bft) S-SW 205 0 min 0,002 mm 32 W/m -3,0 C -1,7 C 9,7 km/h (2 Bft) 97 %
03.12.2017 14:20 -1,8 C -1,8 C -1,7 C 91 % 1025,9 hPa 0,1 l/m 6,6 km/h (2 Bft) S-SW 212 0 min 0,000 mm 28 W/m -3,1 C -2,0 C 14,5 km/h (3 Bft) 97 %
03.12.2017 14:30 -1,8 C -1,8 C -1,8 C 91 % 1025,8 hPa 0,0 l/m 8,5 km/h (2 Bft) S-SW 210 0 min 0,000 mm 21 W/m -3,1 C -4,0 C 17,7 km/h (3 Bft) 97 %
03.12.2017 14:40 -1,8 C -1,8 C -1,8 C 91 % 1025,8 hPa 0,1 l/m 6,7 km/h (2 Bft) S-SW 199 0 min 0,000 mm 18 W/m -3,1 C -2,1 C 14,5 km/h (3 Bft) 98 %
03.12.2017 14:50 -1,8 C -1,8 C -1,7 C 91 % 1025,9 hPa 0,0 l/m 5,8 km/h (2 Bft) S-SW 195 0 min 0,000 mm 14 W/m -3,1 C -1,8 C 14,5 km/h (3 Bft) 98 %
03.12.2017 15:00 -1,8 C -1,8 C -1,7 C 91 % 1025,8 hPa 0,0 l/m 7,2 km/h (2 Bft) S-SW 206 0 min 0,025 mm 11 W/m -3,1 C -2,7 C 16,1 km/h (3 Bft) 97 %
03.12.2017 15:10 -1,8 C -1,8 C -1,8 C 91 % 1025,8 hPa 0,0 l/m 8,6 km/h (2 Bft) SW 220 0 min 0,000 mm 7 W/m -3,1 C -4,1 C 17,7 km/h (3 Bft) 98 %
03.12.2017 15:20 -1,8 C -1,8 C -1,8 C 91 % 1025,8 hPa 0,2 l/m 7,2 km/h (2 Bft) S-SW 206 0 min 0,000 mm 7 W/m -3,1 C -2,7 C 16,1 km/h (3 Bft) 98 %
03.12.2017 15:30 -1,8 C -1,8 C -1,8 C 91 % 1025,7 hPa 0,0 l/m 8,0 km/h (2 Bft) S-SW 211 0 min 0,000 mm 7 W/m -3,1 C -3,5 C 19,3 km/h (3 Bft) 97 %
03.12.2017 15:40 -1,9 C -1,9 C -1,8 C 91 % 1025,8 hPa 0,1 l/m 6,6 km/h (2 Bft) SW 217 0 min 0,000 mm 7 W/m -3,2 C -2,1 C 17,7 km/h (3 Bft) 97 %
03.12.2017 15:50 -1,9 C -1,9 C -1,9 C 91 % 1025,9 hPa 0,0 l/m 5,8 km/h (2 Bft) SW 222 0 min 0,000 mm 0 W/m -3,2 C -1,9 C 12,9 km/h (3 Bft) 97 %
03.12.2017 16:00 -2,0 C -2,0 C -1,9 C 91 % 1026,0 hPa 0,0 l/m 5,3 km/h (1 Bft) S-SW 207 0 min 0,000 mm 0 W/m -3,3 C -2,0 C 16,1 km/h (3 Bft) 92 %
03.12.2017 16:10 -2,0 C -2,0 C -2,0 C 91 % 1025,8 hPa 0,2 l/m 5,7 km/h (1 Bft) SW 222 0 min 0,000 mm 0 W/m -3,3 C -2,0 C 14,5 km/h (3 Bft) 95 %
03.12.2017 16:20 -2,0 C -2,1 C -2,0 C 91 % 1025,9 hPa 0,0 l/m 6,3 km/h (2 Bft) S-SW 210 0 min 0,000 mm 0 W/m -3,3 C -2,0 C 14,5 km/h (3 Bft) 98 %
03.12.2017 16:30 -1,9 C -2,0 C -1,9 C 91 % 1025,9 hPa 0,2 l/m 6,4 km/h (2 Bft) S-SW 212 0 min 0,000 mm 0 W/m -3,2 C -1,9 C 16,1 km/h (3 Bft) 97 %
03.12.2017 16:40 -1,9 C -1,9 C -1,9 C 91 % 1025,9 hPa 0,0 l/m 6,0 km/h (2 Bft) S-SW 202 0 min 0,000 mm 0 W/m -3,2 C -1,9 C 11,3 km/h (2 Bft) 98 %
03.12.2017 16:50 -1,9 C -1,9 C -1,9 C 91 % 1025,8 hPa 0,0 l/m 5,6 km/h (1 Bft) SW 228 0 min 0,000 mm 0 W/m -3,2 C -1,9 C 17,7 km/h (3 Bft) 98 %
03.12.2017 17:00 -2,0 C -2,0 C -1,9 C 91 % 1025,9 hPa 0,2 l/m 5,9 km/h (2 Bft) S-SW 209 0 min 0,000 mm 0 W/m -3,3 C -2,0 C 12,9 km/h (3 Bft) 97 %
03.12.2017 17:10 -2,1 C -2,1 C -2,0 C 91 % 1025,9 hPa 0,0 l/m 5,7 km/h (1 Bft) S-SW 192 0 min 0,000 mm 0 W/m -3,4 C -2,1 C 9,7 km/h (2 Bft) 98 %
03.12.2017 17:20 -2,1 C -2,1 C -2,0 C 91 % 1025,9 hPa 0,1 l/m 7,3 km/h (2 Bft) S-SW 194 0 min 0,000 mm 0 W/m -3,4 C -3,1 C 16,1 km/h (3 Bft) 97 %
03.12.2017 17:30 -2,1 C -2,1 C -2,1 C 91 % 1026,0 hPa 0,0 l/m 9,2 km/h (2 Bft) SW 218 0 min 0,000 mm 0 W/m -3,4 C -5,0 C 19,3 km/h (3 Bft) 98 %
03.12.2017 17:40 -2,1 C -2,1 C -2,1 C 91 % 1026,0 hPa 0,0 l/m 9,0 km/h (2 Bft) S-SW 209 0 min 0,000 mm 0 W/m -3,4 C -4,8 C 17,7 km/h (3 Bft) 97 %
03.12.2017 17:50 -2,1 C -2,1 C -2,1 C 91 % 1025,9 hPa 0,2 l/m 8,2 km/h (2 Bft) S-SW 207 0 min 0,000 mm 0 W/m -3,4 C -4,1 C 16,1 km/h (3 Bft) 97 %
03.12.2017 18:00 -2,1 C -2,1 C -2,1 C 91 % 1025,9 hPa 0,0 l/m 8,4 km/h (2 Bft) SW 217 0 min 0,000 mm 0 W/m -3,4 C -4,3 C 17,7 km/h (3 Bft) 98 %
03.12.2017 18:10 -2,1 C -2,1 C -2,1 C 91 % 1025,9 hPa 0,2 l/m 7,5 km/h (2 Bft) S-SW 202 0 min 0,000 mm 0 W/m -3,4 C -3,3 C 14,5 km/h (3 Bft) 97 %
03.12.2017 18:20 -2,1 C -2,1 C -2,1 C 91 % 1025,9 hPa 0,0 l/m 7,7 km/h (2 Bft) S-SW 207 0 min 0,000 mm 0 W/m -3,4 C -3,5 C 17,7 km/h (3 Bft) 98 %
03.12.2017 18:30 -2,1 C -2,1 C -2,0 C 91 % 1025,9 hPa 0,0 l/m 8,4 km/h (2 Bft) S-SW 211 0 min 0,000 mm 0 W/m -3,4 C -4,3 C 17,7 km/h (3 Bft) 97 %
03.12.2017 18:40 -2,1 C -2,1 C -2,1 C 91 % 1026,0 hPa 0,0 l/m 8,0 km/h (2 Bft) SW 220 0 min 0,000 mm 0 W/m -3,4 C -3,9 C 16,1 km/h (3 Bft) 89 %
03.12.2017 18:50 -2,1 C -2,1 C -2,1 C 91 % 1025,9 hPa 0,2 l/m 8,2 km/h (2 Bft) S 186 0 min 0,000 mm 0 W/m -3,4 C -4,1 C 20,9 km/h (4 Bft) 97 %
03.12.2017 19:00 -2,0 C -2,1 C -2,0 C 91 % 1026,1 hPa 0,0 l/m 10,1 km/h (2 Bft) SW 214 0 min 0,000 mm 0 W/m -3,3 C -5,7 C 24,1 km/h (4 Bft) 97 %
03.12.2017 19:10 -2,0 C -2,0 C -2,0 C 91 % 1026,1 hPa 0,0 l/m 8,4 km/h (2 Bft) S-SW 201 0 min 0,000 mm 0 W/m -3,3 C -4,2 C 22,5 km/h (4 Bft) 98 %
03.12.2017 19:20 -1,9 C -2,0 C -1,9 C 91 % 1026,2 hPa 0,1 l/m 7,4 km/h (2 Bft) W-SW 251 0 min 0,000 mm 0 W/m -3,2 C -3,0 C 16,1 km/h (3 Bft) 97 %
03.12.2017 19:30 -1,9 C -1,9 C -1,9 C 91 % 1026,2 hPa 0,0 l/m 7,6 km/h (2 Bft) SW 236 0 min 0,000 mm 0 W/m -3,2 C -3,2 C 19,3 km/h (3 Bft) 98 %
03.12.2017 19:40 -1,9 C -1,9 C -1,8 C 91 % 1026,2 hPa 0,0 l/m 5,5 km/h (1 Bft) S-SW 209 0 min 0,000 mm 0 W/m -3,2 C -1,9 C 14,5 km/h (3 Bft) 97 %
03.12.2017 19:50 -1,8 C -1,9 C -1,8 C 91 % 1026,3 hPa 0,0 l/m 6,4 km/h (2 Bft) SW 217 0 min 0,000 mm 0 W/m -3,1 C -1,8 C 11,3 km/h (2 Bft) 97 %
03.12.2017 20:00 -1,9 C -1,9 C -1,8 C 91 % 1026,3 hPa 0,0 l/m 7,5 km/h (2 Bft) SW 227 0 min 0,000 mm 0 W/m -3,2 C -3,1 C 19,3 km/h (3 Bft) 100 %
03.12.2017 20:10 -1,9 C -1,9 C -1,9 C 91 % 1026,3 hPa 0,0 l/m 5,7 km/h (1 Bft) W-SW 258 0 min 0,000 mm 0 W/m -3,2 C -1,9 C 14,5 km/h (3 Bft) 100 %
03.12.2017 20:20 -1,9 C -1,9 C -1,9 C 91 % 1026,3 hPa 0,0 l/m 6,0 km/h (2 Bft) SW 220 0 min 0,000 mm 0 W/m -3,2 C -1,9 C 16,1 km/h (3 Bft) 100 %
03.12.2017 20:30 -1,8 C -1,9 C -1,8 C 91 % 1026,3 hPa 0,0 l/m 6,9 km/h (2 Bft) S-SW 212 0 min 0,000 mm 0 W/m -3,1 C -2,3 C 16,1 km/h (3 Bft) 100 %
03.12.2017 20:40 -1,8 C -1,9 C -1,8 C 91 % 1026,3 hPa 0,1 l/m 7,2 km/h (2 Bft) SW 229 0 min 0,000 mm 0 W/m -3,1 C -2,7 C 14,5 km/h (3 Bft) 100 %
03.12.2017 20:50 -1,8 C -1,8 C -1,8 C 91 % 1026,3 hPa 0,0 l/m 5,5 km/h (1 Bft) W-SW 239 0 min 0,000 mm 0 W/m -3,1 C -1,8 C 16,1 km/h (3 Bft) 100 %
03.12.2017 21:00 -1,7 C -1,8 C -1,7 C 91 % 1026,4 hPa 0,2 l/m 4,9 km/h (1 Bft) SW 234 0 min 0,000 mm 0 W/m -3,0 C -1,7 C 17,7 km/h (3 Bft) 100 %
03.12.2017 21:10 -1,6 C -1,7 C -1,6 C 91 % 1026,2 hPa 0,0 l/m 4,8 km/h (1 Bft) W-SW 247 0 min 0,000 mm 0 W/m -2,9 C -1,6 C 11,3 km/h (2 Bft) 97 %
03.12.2017 21:20 -1,6 C -1,6 C -1,6 C 91 % 1026,3 hPa 0,0 l/m 6,4 km/h (2 Bft) W-SW 247 0 min 0,000 mm 0 W/m -2,9 C -1,6 C 16,1 km/h (3 Bft) 98 %
03.12.2017 21:30 -1,6 C -1,6 C -1,6 C 91 % 1026,4 hPa 0,1 l/m 4,8 km/h (1 Bft) SW 225 0 min 0,000 mm 0 W/m -2,9 C -1,6 C 14,5 km/h (3 Bft) 98 %
03.12.2017 21:40 -1,6 C -1,6 C -1,6 C 91 % 1026,5 hPa 0,0 l/m 4,8 km/h (1 Bft) W-SW 247 0 min 0,000 mm 0 W/m -2,9 C -1,6 C 14,5 km/h (3 Bft) 97 %
03.12.2017 21:50 -1,5 C -1,6 C -1,5 C 91 % 1026,5 hPa 0,2 l/m 4,8 km/h (1 Bft) W-SW 247 0 min 0,000 mm 0 W/m -2,8 C -1,5 C 16,1 km/h (3 Bft) 97 %
03.12.2017 22:00 -1,4 C -1,5 C -1,4 C 91 % 1026,6 hPa 0,0 l/m 6,4 km/h (2 Bft) W 270 0 min 0,000 mm 0 W/m -2,7 C -1,4 C 19,3 km/h (3 Bft) 98 %
03.12.2017 22:10 -1,4 C -1,4 C -1,4 C 91 % 1026,7 hPa 0,0 l/m 6,4 km/h (2 Bft) W-SW 247 0 min 0,000 mm 0 W/m -2,7 C -1,4 C 20,9 km/h (4 Bft) 97 %
03.12.2017 22:20 -1,3 C -1,4 C -1,3 C 91 % 1026,9 hPa 0,0 l/m 6,4 km/h (2 Bft) W-SW 247 0 min 0,000 mm 0 W/m -2,6 C -1,3 C 22,5 km/h (4 Bft) 98 %
03.12.2017 22:30 -1,2 C -1,3 C -1,2 C 91 % 1026,8 hPa 0,0 l/m 6,4 km/h (2 Bft) W 270 0 min 0,000 mm 0 W/m -2,5 C -1,2 C 17,7 km/h (3 Bft) 98 %
03.12.2017 22:40 -1,2 C -1,2 C -1,2 C 91 % 1026,9 hPa 0,1 l/m 6,4 km/h (2 Bft) W 270 0 min 0,000 mm 0 W/m -2,5 C -1,2 C 22,5 km/h (4 Bft) 97 %
03.12.2017 22:50 -1,2 C -1,2 C -1,2 C 91 % 1026,8 hPa 0,0 l/m 8,0 km/h (2 Bft) W-SW 247 0 min 0,000 mm 0 W/m -2,5 C -2,9 C 29,0 km/h (5 Bft) 98 %
03.12.2017 23:00 -1,2 C -1,2 C -1,2 C 91 % 1026,9 hPa 0,0 l/m 4,8 km/h (1 Bft) W 270 0 min 0,000 mm 0 W/m -2,5 C -1,2 C 14,5 km/h (3 Bft) 97 %
03.12.2017 23:10 -1,2 C -1,3 C -1,2 C 91 % 1027,0 hPa 0,1 l/m 4,8 km/h (1 Bft) W-SW 247 0 min 0,000 mm 0 W/m -2,5 C -1,2 C 14,5 km/h (3 Bft) 98 %
03.12.2017 23:20 -1,3 C -1,3 C -1,2 C 91 % 1027,0 hPa 0,0 l/m 6,4 km/h (2 Bft) W-SW 247 0 min 0,000 mm 0 W/m -2,6 C -1,3 C 17,7 km/h (3 Bft) 97 %
03.12.2017 23:30 -1,3 C -1,3 C -1,2 C 91 % 1027,0 hPa 0,0 l/m 4,8 km/h (1 Bft) W-SW 247 0 min 0,000 mm 0 W/m -2,6 C -1,3 C 14,5 km/h (3 Bft) 98 %
03.12.2017 23:40 -1,3 C -1,3 C -1,2 C 91 % 1026,9 hPa 0,1 l/m 4,8 km/h (1 Bft) SW 225 0 min 0,000 mm 0 W/m -2,6 C -1,3 C 17,7 km/h (3 Bft) 98 %
03.12.2017 23:50 -1,2 C -1,3 C -1,2 C 91 % 1026,9 hPa 0,0 l/m 6,4 km/h (2 Bft) W-SW 247 0 min 0,000 mm 0 W/m -2,5 C -1,2 C 17,7 km/h (3 Bft) 97 %
_ Min-Zeit 05:50 05:50 06:00 05:00 15:30 - 00:00 - - - - - 05:50 19:00 00:10 04:00
Minimum _ -2,4 C -2,4 C -2,4 C 86 % 1025,7 hPa - 0,0 km/h (0 Bft) - - - - - -4,1 C -5,7 C 0,0 km/h (0 Bft) 89 %
_ Max-Zeit 10:30 22:40 10:30 00:00 10:20 13:50 19:00 - - 00:00 10:00 12:10 22:30 22:30 22:50 00:00
Maximum _ -1,2 C -1,2 C -1,2 C 91 % 1027,6 hPa 0,2 l/m 10,1 km/h
SW (2 Bft)
- - 0 min 0,025 mm 76 W/m -2,5 C -1,2 C 29,0 km/h
W (5 Bft)
100 %
Durchschnitt _ -1,8 C -1,8 C -1,8 C 90 % 1026,5 hPa #3,5 l/m 3,6 km/h (1 Bft) S-SW - #0 min. #0,127 mm 43 W/m -3,3 C -2,1 C 9,5 km/h (2 Bft) 98 %
PRIVATE WETTERSTATION BILLIGHEIM-ALLFELD - www.neckar-odenwald-wetter.de - Holger Sonntag